Melrose, Massachusetts
Current Conditions -  °F | °C
As of 9:31 AM on Thursday 23 Oct 2014 (Local Time) from KBOS Reporting Station
Moderate Rain Moderate Rain  
Wind Chill: 50°   Ceiling: 9500
Heat Index: 50°   Visibility: 3mi
Dew Point: 48°   Wind: 33mph
Humidity: 94%   Direction: 360°N
Pressure: 29.6"   Gusts: 44mph
Location:  42.46°N, 71.06°W
Report Text: KBOS 231331Z 36029G38KT 3SM RA BR FEW060 SCT070 OVC095 10/09 A2960 RMK AO2 PK WND 35039/1318 P0014
Loading
Personal Weather Stations






























Interactive Weather Map
Tropical Storm Tracking
New forecast layout! Learn more

10-Day Weather Forecast

Advertisements
Track Severe Weather on mobile